Time;durP1;ratioP1;P1;durP2;ratioP2;P2;SDS_P1;SDS_P2;PMS_P1;PMS_P2;Temp;Humidity;BMP_temperature;BMP_pressure;BME280_temperature;BME280_humidity;BME280_pressure;Samples;Min_cycle;Max_cycle;Signal;HPM_P1;HPM_P2
2021/01/11 00:00:24;;;;;;;34.10;20.55;;;26.40;2201.60;;;;;;5095608;28;20415;-73
2021/01/11 00:02:53;;;;;;;32.42;19.15;;;26.40;2201.60;;;;;;5095643;28;20020;-74
2021/01/11 00:05:18;;;;;;;31.85;18.55;;;26.30;2201.60;;;;;;5093153;28;20465;-73
2021/01/11 00:07:44;;;;;;;36.47;20.27;;;26.40;2201.60;;;;;;5093697;28;20032;-73
2021/01/11 00:10:13;;;;;;;38.97;20.08;;;26.40;2201.60;;;;;;5094456;28;20060;-73
2021/01/11 00:12:39;;;;;;;37.05;20.23;;;26.40;2201.60;;;;;;5095954;28;20024;-73
2021/01/11 00:15:07;;;;;;;34.22;19.50;;;26.40;2201.60;;;;;;5093303;28;20032;-73
2021/01/11 00:17:34;;;;;;;34.72;19.42;;;26.40;2201.60;;;;;;5094666;28;20052;-75
2021/01/11 00:19:59;;;;;;;34.25;19.88;;;26.40;2201.60;;;;;;5095003;28;20124;-73
2021/01/11 00:22:25;;;;;;;45.70;26.42;;;26.40;2201.60;;;;;;5095425;28;20489;-74
2021/01/11 00:24:51;;;;;;;39.42;23.38;;;26.40;2201.60;;;;;;5095103;28;20027;-74
2021/01/11 00:27:16;;;;;;;32.42;19.90;;;26.40;2201.60;;;;;;5094370;28;20024;-74
2021/01/11 00:29:42;;;;;;;35.08;20.35;;;26.40;2201.60;;;;;;5094702;28;20493;-77
2021/01/11 00:32:08;;;;;;;42.28;25.48;;;26.40;2201.60;;;;;;5093303;28;20043;-75
2021/01/11 00:34:33;;;;;;;63.72;35.35;;;26.40;2201.60;;;;;;5093380;28;20028;-74
2021/01/11 00:36:59;;;;;;;35.92;21.77;;;26.50;2201.60;;;;;;5055958;28;20016;-73
2021/01/11 00:39:26;;;;;;;41.30;23.58;;;26.40;2201.60;;;;;;5092387;28;20035;-72
2021/01/11 00:42:00;;;;;;;38.45;22.27;;;26.40;2201.60;;;;;;5093181;28;20043;-74
2021/01/11 00:44:26;;;;;;;31.45;19.05;;;26.40;2201.60;;;;;;5093936;28;20085;-71
2021/01/11 00:46:52;;;;;;;35.05;23.38;;;26.40;2201.60;;;;;;5093990;28;20031;-73
2021/01/11 00:49:18;;;;;;;30.80;18.75;;;26.40;2201.60;;;;;;5094320;28;20024;-73
2021/01/11 00:51:45;;;;;;;34.97;21.73;;;26.40;2201.60;;;;;;5093237;28;20020;-71
2021/01/11 00:54:11;;;;;;;27.55;17.20;;;26.40;2201.60;;;;;;5092658;28;20028;-73
2021/01/11 00:56:37;;;;;;;24.95;15.23;;;26.40;2201.60;;;;;;5090868;28;20462;-74
2021/01/11 00:59:02;;;;;;;28.60;17.70;;;26.40;2201.60;;;;;;5073063;28;20044;-74
2021/01/11 01:01:28;;;;;;;34.63;20.95;;;26.50;2201.60;;;;;;5091326;28;20020;-73
2021/01/11 01:03:54;;;;;;;39.75;22.20;;;26.50;2201.60;;;;;;5092750;28;20495;-74
2021/01/11 01:06:19;;;;;;;37.70;22.38;;;26.50;2201.60;;;;;;5092310;28;20474;-72
2021/01/11 01:08:45;;;;;;;28.35;17.60;;;26.50;2201.60;;;;;;5091610;28;20503;-73
2021/01/11 01:11:12;;;;;;;22.15;13.57;;;26.50;2201.60;;;;;;5088730;28;20027;-73
2021/01/11 01:13:38;;;;;;;22.92;13.73;;;26.50;2201.60;;;;;;5094190;28;20019;-72
2021/01/11 01:16:05;;;;;;;21.95;13.30;;;26.50;2201.60;;;;;;5093346;28;20536;-72
2021/01/11 01:18:31;;;;;;;24.67;14.68;;;26.50;2201.60;;;;;;5093992;28;20438;-74
2021/01/11 01:20:56;;;;;;;36.67;23.70;;;51.20;2227.20;;;;;;5093129;28;20031;-73
2021/01/11 01:23:22;;;;;;;29.38;17.83;;;51.20;2227.20;;;;;;5094678;28;20012;-74
2021/01/11 01:25:47;;;;;;;27.17;16.27;;;51.20;2227.20;;;;;;5093505;28;20129;-73
2021/01/11 01:28:13;;;;;;;28.02;17.38;;;51.20;2227.20;;;;;;5093114;28;20059;-72
2021/01/11 01:30:39;;;;;;;35.13;20.95;;;51.30;2227.20;;;;;;5068977;28;20055;-72
2021/01/11 01:33:04;;;;;;;28.77;17.55;;;51.30;2227.20;;;;;;5092595;28;20048;-73
2021/01/11 01:35:30;;;;;;;26.40;16.27;;;51.30;2227.20;;;;;;5064508;28;20469;-72
2021/01/11 01:37:56;;;;;;;29.48;19.70;;;51.30;2227.20;;;;;;5060675;28;20028;-73
2021/01/11 01:40:23;;;;;;;22.60;15.35;;;51.30;2227.20;;;;;;5064685;28;20458;-74
2021/01/11 01:42:49;;;;;;;23.23;14.38;;;51.30;2227.20;;;;;;5093887;28;20555;-73
2021/01/11 01:45:15;;;;;;;20.08;12.20;;;51.30;2227.20;;;;;;5093613;28;20103;-73
2021/01/11 01:47:40;;;;;;;17.85;10.23;;;51.20;2227.20;;;;;;5092014;28;20034;-74
2021/01/11 01:50:07;;;;;;;19.23;10.80;;;51.20;2227.20;;;;;;5075411;28;20059;-73
2021/01/11 01:52:36;;;;;;;20.98;11.52;;;51.20;2227.20;;;;;;5076068;28;20530;-73
2021/01/11 01:55:03;;;;;;;20.27;11.98;;;26.50;2201.60;;;;;;5072746;28;20070;-73
2021/01/11 01:57:29;;;;;;;20.13;10.93;;;26.50;2201.60;;;;;;5092087;28;20027;-73
2021/01/11 01:59:54;;;;;;;20.73;12.07;;;26.50;2201.60;;;;;;5092590;28;20468;-73
2021/01/11 02:02:20;;;;;;;17.17;10.18;;;51.20;2227.20;;;;;;5092574;28;20021;-73
2021/01/11 02:04:46;;;;;;;16.65;10.23;;;51.20;2227.20;;;;;;5075785;28;20024;-73
2021/01/11 02:07:29;;;;;;;21.33;12.43;;;51.20;2227.20;;;;;;5093025;28;20012;-73
2021/01/11 02:10:12;;;;;;;40.03;21.30;;;26.50;2201.60;;;;;;5093590;28;20092;-73
2021/01/11 02:12:54;;;;;;;29.60;17.20;;;26.40;2201.60;;;;;;5092285;28;20016;-73
2021/01/11 02:15:22;;;;;;;21.08;13.15;;;26.40;2201.60;;;;;;5068640;28;20024;-73
2021/01/11 02:17:53;;;;;;;25.50;15.32;;;26.50;2201.60;;;;;;5093161;28;20169;-73
2021/01/11 02:20:46;;;;;;;16.30;10.90;;;26.50;2201.60;;;;;;5071443;28;20020;-73
2021/01/11 02:23:30;;;;;;;17.17;10.50;;;51.20;2227.20;;;;;;5082501;28;20021;-76
2021/01/11 02:26:07;;;;;;;21.38;12.65;;;51.20;2227.20;;;;;;5093253;28;20016;-74
2021/01/11 02:28:53;;;;;;;32.55;18.17;;;26.50;2201.60;;;;;;5092226;28;20017;-72
2021/01/11 02:31:19;;;;;;;20.95;12.30;;;26.50;2201.60;;;;;;5093351;28;20027;-75
2021/01/11 02:33:45;;;;;;;13.25;7.93;;;26.50;2201.60;;;;;;5092007;28;20040;-73
2021/01/11 02:36:10;;;;;;;12.23;7.82;;;51.20;2227.20;;;;;;5075202;28;20027;-72
2021/01/11 02:38:37;;;;;;;35.63;19.88;;;51.20;2227.20;;;;;;5075110;28;20051;-76
2021/01/11 02:41:03;;;;;;;43.10;22.08;;;51.20;2227.20;;;;;;5091688;28;20020;-73
2021/01/11 02:43:29;;;;;;;45.38;22.77;;;51.20;2227.20;;;;;;5093130;28;20491;-73
2021/01/11 02:45:55;;;;;;;23.55;13.10;;;51.20;2227.20;;;;;;5091944;28;20107;-73
2021/01/11 02:48:27;;;;;;;20.83;12.30;;;51.20;2227.20;;;;;;5092955;28;20396;-78
2021/01/11 02:51:21;;;;;;;22.52;13.02;;;51.20;2227.20;;;;;;5092024;28;20024;-76
2021/01/11 02:54:05;;;;;;;20.45;12.43;;;51.20;2227.20;;;;;;5083314;28;20123;-74
2021/01/11 02:56:40;;;;;;;18.52;11.30;;;51.20;2227.20;;;;;;5090857;28;20031;-77
2021/01/11 02:59:13;;;;;;;18.02;12.10;;;51.20;2227.20;;;;;;5092712;28;20020;-75
2021/01/11 03:01:45;;;;;;;17.20;11.60;;;51.30;2227.20;;;;;;5091436;28;20503;-78
2021/01/11 03:04:11;;;;;;;22.27;14.63;;;51.20;2227.20;;;;;;5058386;28;20024;-82
2021/01/11 03:06:37;;;;;;;15.13;9.65;;;51.20;2227.20;;;;;;5076485;28;20024;-83
2021/01/11 03:09:06;;;;;;;11.15;7.25;;;51.20;2227.20;;;;;;5075105;28;20028;-80
2021/01/11 03:11:35;;;;;;;19.08;12.60;;;51.20;2227.20;;;;;;5092710;28;20028;-77
2021/01/11 03:14:02;;;;;;;19.15;11.65;;;51.30;2227.20;;;;;;5092414;28;20047;-74
2021/01/11 03:16:27;;;;;;;20.35;12.27;;;51.30;2227.20;;;;;;5092833;28;20107;-75
2021/01/11 03:18:53;;;;;;;21.15;12.15;;;51.30;2227.20;;;;;;5092285;28;20162;-77
2021/01/11 03:21:18;;;;;;;16.98;10.68;;;51.30;2227.20;;;;;;5092156;28;20031;-75
2021/01/11 03:23:44;;;;;;;16.55;9.93;;;51.30;2227.20;;;;;;5092924;28;20106;-76
2021/01/11 03:26:09;;;;;;;17.42;10.32;;;51.30;2227.20;;;;;;5092329;28;20020;-78
2021/01/11 03:28:35;;;;;;;15.63;9.45;;;51.30;2227.20;;;;;;5092638;28;20024;-73
2021/01/11 03:31:01;;;;;;;19.27;11.02;;;51.30;2227.20;;;;;;5094237;28;20047;-74
2021/01/11 03:33:26;;;;;;;18.63;10.93;;;51.30;2227.20;;;;;;5096525;28;20028;-73
2021/01/11 03:35:52;;;;;;;18.48;11.23;;;51.30;2227.20;;;;;;5096620;28;20519;-74
2021/01/11 03:38:17;;;;;;;16.30;9.82;;;51.30;2227.20;;;;;;5096409;28;20032;-74
2021/01/11 03:40:43;;;;;;;16.00;10.02;;;51.30;2227.20;;;;;;5096496;28;20069;-79
2021/01/11 03:43:09;;;;;;;19.00;12.07;;;51.30;2227.20;;;;;;5096398;28;20016;-83
2021/01/11 03:45:34;;;;;;;26.27;16.15;;;51.30;2227.20;;;;;;5095402;28;20087;-78
2021/01/11 03:48:00;;;;;;;22.60;13.13;;;51.30;2227.20;;;;;;5096453;28;20112;-78
2021/01/11 03:50:25;;;;;;;20.05;11.18;;;51.30;2227.20;;;;;;5096318;28;20032;-79
2021/01/11 03:52:51;;;;;;;15.23;9.07;;;51.30;2227.20;;;;;;5096355;28;20107;-75
2021/01/11 03:55:17;;;;;;;20.05;11.60;;;51.20;2227.20;;;;;;5096063;28;20500;-78
2021/01/11 03:57:42;;;;;;;25.13;14.38;;;51.30;2227.20;;;;;;5078122;28;20488;-74
2021/01/11 04:00:08;;;;;;;23.45;12.77;;;51.20;2227.20;;;;;;5096227;28;20146;-75
2021/01/11 04:02:34;;;;;;;19.98;11.23;;;51.20;2227.20;;;;;;5096409;28;20065;-77
2021/01/11 04:04:59;;;;;;;18.20;10.40;;;51.30;2227.20;;;;;;5095867;28;20507;-77
2021/01/11 04:07:25;;;;;;;18.67;10.25;;;51.30;2227.20;;;;;;5095835;28;20101;-79
2021/01/11 04:09:51;;;;;;;16.30;9.95;;;51.30;2227.20;;;;;;5095805;28;20016;-77
2021/01/11 04:12:16;;;;;;;21.05;11.65;;;51.30;2227.20;;;;;;5095769;28;20499;-79
2021/01/11 04:14:42;;;;;;;18.25;9.80;;;51.30;2227.20;;;;;;5095943;28;20035;-84
2021/01/11 04:17:08;;;;;;;19.05;11.02;;;51.30;2227.20;;;;;;5077513;28;20023;-85
2021/01/11 04:19:33;;;;;;;20.52;12.25;;;51.30;2227.20;;;;;;5095572;28;20048;-84
2021/01/11 04:22:01;;;;;;;25.30;14.98;;;51.30;2227.20;;;;;;5060934;28;20058;-85
2021/01/11 04:24:26;;;;;;;24.83;15.20;;;51.30;2227.20;;;;;;5077791;28;20028;-85
2021/01/11 04:26:52;;;;;;;19.80;12.38;;;51.30;2227.20;;;;;;5060838;28;20020;-86
2021/01/11 04:29:18;;;;;;;16.55;10.23;;;51.30;2227.20;;;;;;5077130;28;20480;-85
2021/01/11 04:31:46;;;;;;;14.05;8.05;;;51.30;2227.20;;;;;;5094310;28;20081;-75
2021/01/11 04:34:12;;;;;;;18.25;12.90;;;51.30;2227.20;;;;;;5095379;28;20063;-79
2021/01/11 04:36:37;;;;;;;17.45;11.75;;;51.30;2227.20;;;;;;5095440;28;20055;-85
2021/01/11 04:39:03;;;;;;;14.93;9.80;;;51.30;2227.20;;;;;;5095367;28;20541;-79
2021/01/11 04:41:33;;;;;;;22.05;13.40;;;51.30;2227.20;;;;;;5094945;28;20016;-75
2021/01/11 04:43:59;;;;;;;16.85;10.75;;;51.30;2227.20;;;;;;5093948;28;20028;-79
2021/01/11 04:46:24;;;;;;;14.10;9.27;;;51.30;2227.20;;;;;;5077173;28;20477;-79
2021/01/11 04:48:51;;;;;;;16.42;11.40;;;51.30;2227.20;;;;;;5077112;28;20032;-79
2021/01/11 04:51:17;;;;;;;17.05;11.80;;;51.30;2227.20;;;;;;5093880;28;20039;-84
2021/01/11 04:53:43;;;;;;;12.15;7.85;;;51.30;2227.20;;;;;;5077129;28;20036;-83
2021/01/11 04:56:10;;;;;;;9.70;6.00;;;51.30;2227.20;;;;;;5077007;28;20016;-75
2021/01/11 04:59:02;;;;;;;8.43;5.38;;;51.30;2227.20;;;;;;5094939;28;20107;-74
2021/01/11 05:05:00;;;;;;;7.03;4.43;;;51.30;2227.20;;;;;;5043595;28;20042;-84
2021/01/11 05:07:29;;;;;;;6.97;4.75;;;51.30;2227.20;;;;;;5076487;28;20103;-82
2021/01/11 05:09:54;;;;;;;8.93;5.60;;;51.30;2227.20;;;;;;5093615;28;20389;-78
2021/01/11 05:12:20;;;;;;;9.20;6.90;;;51.30;2227.20;;;;;;5093337;28;20020;-78
2021/01/11 05:14:45;;;;;;;15.13;10.32;;;51.30;2227.20;;;;;;5094647;28;20032;-78
2021/01/11 05:17:12;;;;;;;13.00;8.70;;;51.30;2227.20;;;;;;5094552;28;20455;-78
2021/01/11 05:19:38;;;;;;;13.30;9.43;;;51.30;2227.20;;;;;;5093318;28;20500;-74
2021/01/11 05:22:04;;;;;;;18.35;11.85;;;51.30;2227.20;;;;;;5094661;28;20032;-74
2021/01/11 05:24:43;;;;;;;17.65;11.00;;;51.30;2227.20;;;;;;5094438;28;20414;-79
2021/01/11 05:27:09;;;;;;;18.00;10.85;;;51.30;2227.20;;;;;;5077474;28;20023;-74
2021/01/11 05:29:35;;;;;;;21.58;12.65;;;51.30;2227.20;;;;;;5093216;28;20063;-77
2021/01/11 05:32:08;;;;;;;19.55;11.77;;;51.20;2227.20;;;;;;5093183;28;20472;-74
2021/01/11 05:34:59;;;;;;;14.55;9.15;;;51.20;2227.20;;;;;;5094095;28;20100;-74
2021/01/11 05:37:35;;;;;;;12.10;7.50;;;51.20;2227.20;;;;;;5088355;28;20036;-82
2021/01/11 05:40:12;;;;;;;10.40;6.32;;;51.20;2227.20;;;;;;5062898;28;20103;-82
2021/01/11 05:42:39;;;;;;;11.65;7.40;;;51.20;2227.20;;;;;;5092830;28;20062;-82
2021/01/11 05:45:08;;;;;;;13.35;8.00;;;51.20;2227.20;;;;;;5059223;28;20111;-74
2021/01/11 05:47:34;;;;;;;14.73;9.68;;;51.20;2227.20;;;;;;5094098;28;20119;-74
2021/01/11 05:50:08;;;;;;;14.93;8.77;;;51.20;2227.20;;;;;;5092675;28;20102;-77
2021/01/11 05:52:34;;;;;;;16.60;9.63;;;51.20;2227.20;;;;;;5093957;28;20032;-78
2021/01/11 05:55:17;;;;;;;19.45;9.57;;;51.20;2227.20;;;;;;5092505;28;20061;-82
2021/01/11 05:57:52;;;;;;;17.40;9.32;;;51.20;2227.20;;;;;;5061174;28;20109;-83
2021/01/11 06:00:18;;;;;;;18.80;9.80;;;51.20;2227.20;;;;;;5058975;28;20031;-81
2021/01/11 06:02:44;;;;;;;17.70;8.98;;;51.20;2227.20;;;;;;5092697;28;20025;-75
2021/01/11 06:05:10;;;;;;;18.35;10.38;;;51.20;2227.20;;;;;;5093128;28;20389;-83
2021/01/11 06:07:35;;;;;;;17.85;10.52;;;51.20;2227.20;;;;;;5058869;28;20032;-78
2021/01/11 06:10:01;;;;;;;25.70;13.98;;;51.20;2227.20;;;;;;5075730;28;20202;-80
2021/01/11 06:12:27;;;;;;;24.05;14.25;;;51.20;2227.20;;;;;;5091600;28;20020;-74
2021/01/11 06:14:52;;;;;;;21.95;12.80;;;51.20;2227.20;;;;;;5091210;28;20024;-78
2021/01/11 06:17:18;;;;;;;22.67;12.30;;;51.20;2227.20;;;;;;5093153;28;20437;-75
2021/01/11 06:19:45;;;;;;;16.08;8.52;;;51.20;2227.20;;;;;;5092878;28;20074;-74
2021/01/11 06:22:10;;;;;;;20.85;11.07;;;51.20;2227.20;;;;;;5092255;28;20024;-74
2021/01/11 06:24:36;;;;;;;15.77;9.88;;;51.20;2227.20;;;;;;5082200;28;20388;-75
2021/01/11 06:27:02;;;;;;;17.85;10.82;;;51.20;2227.20;;;;;;5093241;28;20115;-83
2021/01/11 06:29:31;;;;;;;20.38;11.85;;;51.30;2227.20;;;;;;5074863;28;20032;-77
2021/01/11 06:31:58;;;;;;;22.10;11.85;;;51.20;2227.20;;;;;;5093060;28;20069;-81
2021/01/11 06:34:34;;;;;;;21.23;12.27;;;51.30;2227.20;;;;;;5104170;28;20495;-78
2021/01/11 06:37:00;;;;;;;21.17;11.05;;;51.30;2227.20;;;;;;5091811;28;20061;-83
2021/01/11 06:39:30;;;;;;;26.77;13.95;;;51.30;2227.20;;;;;;5104676;28;20032;-77
2021/01/11 06:41:56;;;;;;;23.20;12.48;;;51.30;2227.20;;;;;;5092891;28;20020;-82
2021/01/11 06:44:22;;;;;;;26.98;15.27;;;51.30;2227.20;;;;;;5109273;27;20042;-83
2021/01/11 06:46:48;;;;;;;33.00;19.67;;;51.30;2227.20;;;;;;5106540;28;20016;-82
2021/01/11 06:49:24;;;;;;;37.70;25.70;;;51.30;2227.20;;;;;;5105772;28;20038;-77
2021/01/11 06:52:12;;;;;;;33.22;22.83;;;51.40;2227.20;;;;;;5081485;28;20020;-81
2021/01/11 06:54:41;;;;;;;31.80;21.45;;;51.50;2227.20;;;;;;5091345;28;20027;-76
2021/01/11 06:57:12;;;;;;;42.70;25.98;;;51.50;2227.20;;;;;;5093011;28;20031;-74
2021/01/11 06:59:38;;;;;;;31.23;19.23;;;51.50;2227.20;;;;;;5091984;28;20091;-83
2021/01/11 07:02:23;;;;;;;35.10;22.10;;;51.50;2227.20;;;;;;5071442;28;20027;-84
2021/01/11 07:04:49;;;;;;;33.85;20.98;;;51.60;2227.20;;;;;;5071706;28;20024;-86
2021/01/11 07:07:23;;;;;;;31.90;20.13;;;51.60;2227.20;;;;;;5057778;28;20496;-85
2021/01/11 07:09:56;;;;;;;41.05;26.15;;;51.80;2227.20;;;;;;5074695;28;20078;-85
2021/01/11 07:12:22;;;;;;;38.30;24.75;;;51.80;2227.20;;;;;;5075380;28;20496;-78
2021/01/11 07:15:05;;;;;;;46.38;26.48;;;52.00;2227.20;;;;;;5092394;28;20082;-78
2021/01/11 07:17:38;;;;;;;62.85;37.70;;;52.10;2227.20;;;;;;5092538;28;20022;-83
2021/01/11 07:20:13;;;;;;;60.97;35.60;;;52.10;2227.20;;;;;;5092523;28;20032;-82
2021/01/11 07:22:40;;;;;;;45.47;28.38;;;52.10;2227.20;;;;;;5091097;28;20027;-77
2021/01/11 07:25:24;;;;;;;44.80;25.88;;;76.80;2227.20;;;;;;5092338;28;20031;-75
2021/01/11 07:27:56;;;;;;;48.55;25.13;;;52.10;2227.20;;;;;;5091220;28;20421;-84
2021/01/11 07:30:22;;;;;;;76.10;37.83;;;52.10;2227.20;;;;;;5105577;28;20393;-78
2021/01/11 07:32:47;;;;;;;100.25;44.97;;;76.80;2227.20;;;;;;5088370;28;20021;-78
2021/01/11 07:35:13;;;;;;;50.40;28.38;;;76.90;2227.20;;;;;;5092426;28;20078;-84
2021/01/11 07:37:39;;;;;;;59.90;33.72;;;76.90;2227.20;;;;;;5090250;28;20024;-84
2021/01/11 07:40:08;;;;;;;61.03;32.47;;;77.00;2227.20;;;;;;5100982;28;20016;-78
2021/01/11 07:42:34;;;;;;;66.40;35.10;;;77.10;2227.20;;;;;;5092276;28;20016;-75
2021/01/11 07:45:12;;;;;;;77.07;40.20;;;77.30;2227.20;;;;;;5091973;28;20009;-79
2021/01/11 07:47:38;;;;;;;84.32;45.88;;;77.50;2227.20;;;;;;5070860;28;20086;-81
2021/01/11 07:50:05;;;;;;;55.40;34.97;;;77.70;2227.20;;;;;;5090590;28;20024;-79
2021/01/11 07:52:30;;;;;;;56.75;32.22;;;102.50;2227.20;;;;;;5090793;28;20020;-82
2021/01/11 07:55:00;;;;;;;47.83;28.92;;;102.80;2227.20;;;;;;5073934;28;20103;-75
2021/01/11 07:57:27;;;;;;;69.88;38.67;;;103.10;2227.20;;;;;;5092056;28;20024;-75
2021/01/11 08:00:22;;;;;;;51.20;30.35;;;103.30;2227.20;;;;;;5092112;28;20059;-78
2021/01/11 08:02:48;;;;;;;49.67;29.40;;;103.30;2201.60;;;;;;5083047;28;20484;-81
2021/01/11 08:05:23;;;;;;;49.17;32.33;;;128.00;2227.20;;;;;;5091604;28;20066;-75
2021/01/11 08:07:49;;;;;;;42.38;25.90;;;128.00;2227.20;;;;;;5090031;28;20539;-79
2021/01/11 08:10:15;;;;;;;41.25;26.38;;;128.00;2227.20;;;;;;5090871;28;20025;-79
2021/01/11 08:12:41;;;;;;;51.33;34.95;;;128.20;2201.60;;;;;;5090692;28;20430;-79
2021/01/11 08:15:10;;;;;;;38.95;25.83;;;128.30;2201.60;;;;;;5092368;28;20031;-80
2021/01/11 08:17:42;;;;;;;48.67;33.45;;;128.40;2201.60;;;;;;5091519;28;20020;-75
2021/01/11 08:20:08;;;;;;;49.50;33.92;;;128.60;2150.40;;;;;;5077653;28;20028;-74
2021/01/11 08:22:34;;;;;;;42.95;27.73;;;128.80;2124.80;;;;;;5095664;28;20077;-75
2021/01/11 08:25:00;;;;;;;38.40;26.30;;;128.80;2150.40;;;;;;5094260;28;20017;-74
2021/01/11 08:27:40;;;;;;;41.88;27.27;;;128.90;2150.40;;;;;;5095410;28;20020;-75
2021/01/11 08:30:08;;;;;;;40.65;25.63;;;153.60;2124.80;;;;;;5094627;28;20111;-75
2021/01/11 08:32:34;;;;;;;40.50;25.80;;;153.70;2099.20;;;;;;5079038;28;20071;-77
2021/01/11 08:35:19;;;;;;;48.33;30.10;;;128.90;2124.80;;;;;;5094635;28;20024;-74
2021/01/11 08:37:45;;;;;;;58.22;34.55;;;153.60;2124.80;;;;;;5095270;28;20020;-74
2021/01/11 08:40:20;;;;;;;74.35;45.05;;;128.90;2099.20;;;;;;5095338;28;20023;-74
2021/01/11 08:42:46;;;;;;;106.53;57.75;;;128.70;2124.80;;;;;;5095186;28;20056;-75
2021/01/11 08:45:28;;;;;;;83.15;43.90;;;128.50;2124.80;;;;;;5095274;28;20062;-75
2021/01/11 08:47:58;;;;;;;95.32;51.47;;;128.60;2124.80;;;;;;5095102;28;20032;-72
2021/01/11 08:50:24;;;;;;;74.28;39.95;;;128.90;2099.20;;;;;;5094017;28;20512;-73
2021/01/11 08:52:50;;;;;;;63.90;38.10;;;153.60;2073.60;;;;;;5093574;28;20099;-74
2021/01/11 08:55:18;;;;;;;41.35;26.20;;;153.80;2073.60;;;;;;5093807;28;20419;-74
2021/01/11 08:57:55;;;;;;;39.15;24.52;;;154.00;2048.00;;;;;;5094907;28;20016;-75
2021/01/11 09:00:21;;;;;;;49.88;29.30;;;154.10;1996.80;;;;;;5094944;28;20065;-73
2021/01/11 09:02:46;;;;;;;39.85;23.63;;;154.40;2022.40;;;;;;5094721;28;20032;-73
2021/01/11 09:05:23;;;;;;;35.83;22.27;;;179.40;1945.60;;;;;;5094613;28;20027;-73
2021/01/11 09:07:51;;;;;;;40.13;23.63;;;179.90;1920.00;;;;;;5093542;28;20388;-73
2021/01/11 09:10:34;;;;;;;39.20;24.35;;;180.10;1868.80;;;;;;5094797;28;20065;-74
2021/01/11 09:13:19;;;;;;;44.50;27.13;;;205.00;1843.20;;;;;;5093760;28;20028;-74
2021/01/11 09:15:45;;;;;;;37.15;23.67;;;204.80;1843.20;;;;;;5093196;28;20016;-74
2021/01/11 09:18:11;;;;;;;38.53;23.40;;;205.10;1843.20;;;;;;5094515;28;20047;-73
2021/01/11 09:20:38;;;;;;;36.25;23.30;;;205.20;1817.60;;;;;;5094267;28;20473;-75
2021/01/11 09:23:04;;;;;;;42.05;24.88;;;205.20;1817.60;;;;;;5094638;28;20020;-71
2021/01/11 09:25:31;;;;;;;41.17;25.50;;;205.00;1817.60;;;;;;5094911;28;20024;-74
2021/01/11 09:27:56;;;;;;;35.20;23.42;;;204.80;1843.20;;;;;;5092735;28;20084;-79
2021/01/11 09:30:22;;;;;;;36.83;25.17;;;180.10;1843.20;;;;;;5093147;28;20528;-73
2021/01/11 09:32:48;;;;;;;44.80;28.17;;;179.90;1843.20;;;;;;5093054;28;20028;-73
2021/01/11 09:35:15;;;;;;;44.10;27.08;;;180.00;1868.80;;;;;;5095094;28;20020;-73
2021/01/11 09:37:41;;;;;;;46.00;30.15;;;180.00;1843.20;;;;;;5095277;28;20422;-75
2021/01/11 09:40:07;;;;;;;39.58;26.00;;;204.90;1817.60;;;;;;5094334;28;20111;-74
2021/01/11 09:42:32;;;;;;;35.85;23.92;;;205.10;1792.00;;;;;;5094125;28;20020;-74
2021/01/11 09:44:58;;;;;;;29.02;20.27;;;205.40;1792.00;;;;;;5093636;28;20024;-74
2021/01/11 09:47:23;;;;;;;35.55;23.92;;;230.50;1715.20;;;;;;5094202;28;20020;-74
2021/01/11 09:49:49;;;;;;;36.08;23.98;;;230.60;1715.20;;;;;;5093493;28;20507;-73
2021/01/11 09:52:15;;;;;;;35.97;21.98;;;205.70;1740.80;;;;;;5093808;28;20051;-74
2021/01/11 09:54:41;;;;;;;37.50;25.00;;;205.40;1766.40;;;;;;5092391;28;20467;-74
2021/01/11 09:57:10;;;;;;;51.35;32.70;;;205.40;1740.80;;;;;;5093760;28;20024;-72
2021/01/11 09:59:38;;;;;;;33.95;22.42;;;205.50;1766.40;;;;;;5093933;28;20024;-74
2021/01/11 10:02:04;;;;;;;42.42;26.52;;;205.60;1740.80;;;;;;5081955;28;20024;-74
2021/01/11 10:04:30;;;;;;;32.08;22.10;;;205.60;1740.80;;;;;;5093490;28;20027;-74
2021/01/11 10:06:56;;;;;;;38.50;24.88;;;230.40;1740.80;;;;;;5093385;28;20024;-73
2021/01/11 10:09:26;;;;;;;66.95;38.97;;;230.50;1715.20;;;;;;5092302;28;20024;-72
2021/01/11 10:11:54;;;;;;;39.03;26.20;;;230.40;1715.20;;;;;;5093564;28;20496;-72
2021/01/11 10:14:19;;;;;;;38.50;24.98;;;230.40;1715.20;;;;;;5093489;28;20077;-74
2021/01/11 10:16:45;;;;;;;49.65;33.35;;;230.40;1715.20;;;;;;5093786;28;20103;-75
2021/01/11 10:19:15;;;;;;;48.67;28.52;;;205.60;1740.80;;;;;;5091926;28;20040;-73
2021/01/11 10:21:40;;;;;;;45.00;28.75;;;205.60;1740.80;;;;;;5092686;28;20020;-73
2021/01/11 10:24:06;;;;;;;38.80;26.60;;;205.40;1740.80;;;;;;5092681;28;20020;-73
2021/01/11 10:26:33;;;;;;;37.08;26.40;;;205.20;1766.40;;;;;;5092727;28;20100;-74
2021/01/11 10:28:59;;;;;;;37.65;25.05;;;204.80;1792.00;;;;;;5091574;28;20024;-73
2021/01/11 10:31:24;;;;;;;36.45;25.80;;;180.10;1792.00;;;;;;5092058;28;20035;-74
2021/01/11 10:33:50;;;;;;;42.67;28.00;;;180.10;1843.20;;;;;;5091157;28;20024;-73
2021/01/11 10:36:16;;;;;;;77.70;43.00;;;180.10;1817.60;;;;;;5092816;28;20042;-72
2021/01/11 10:38:42;;;;;;;45.60;28.50;;;179.90;1843.20;;;;;;5091622;28;20095;-72
2021/01/11 10:41:08;;;;;;;42.55;26.38;;;179.80;1843.20;;;;;;5090621;28;20528;-73
2021/01/11 10:43:34;;;;;;;42.80;26.60;;;179.70;1868.80;;;;;;5091170;28;20107;-73
2021/01/11 10:46:01;;;;;;;43.00;26.95;;;179.40;1894.40;;;;;;5092297;28;20099;-75
2021/01/11 10:48:27;;;;;;;48.38;31.65;;;179.20;1920.00;;;;;;5091334;28;20457;-79
2021/01/11 10:50:53;;;;;;;51.25;32.08;;;179.40;1894.40;;;;;;5091150;28;20032;-71
2021/01/11 10:53:18;;;;;;;44.55;27.45;;;179.30;1894.40;;;;;;5092477;28;20522;-74
2021/01/11 10:55:44;;;;;;;44.03;28.80;;;179.20;1920.00;;;;;;5058582;28;20481;-74
2021/01/11 10:58:10;;;;;;;40.95;26.52;;;154.30;1920.00;;;;;;5091880;28;20426;-75
2021/01/11 11:00:36;;;;;;;36.33;23.83;;;154.20;1971.20;;;;;;5072498;28;20055;-74
2021/01/11 11:03:07;;;;;;;55.75;33.80;;;154.30;1945.60;;;;;;5092054;28;20024;-75
2021/01/11 11:05:33;;;;;;;46.85;27.65;;;154.50;1945.60;;;;;;5092009;28;20047;-75
2021/01/11 11:07:59;;;;;;;65.00;36.90;;;154.50;1894.40;;;;;;5092547;28;20099;-75
2021/01/11 11:10:25;;;;;;;42.67;27.15;;;154.50;1920.00;;;;;;5091954;28;20527;-74
2021/01/11 11:12:51;;;;;;;35.53;22.38;;;154.30;1920.00;;;;;;5091824;28;20028;-77
2021/01/11 11:15:17;;;;;;;35.60;22.08;;;154.40;1920.00;;;;;;5092182;28;20016;-76
2021/01/11 11:17:43;;;;;;;72.13;40.92;;;154.20;1945.60;;;;;;5096682;28;20024;-78
2021/01/11 11:20:08;;;;;;;39.42;25.17;;;154.20;1945.60;;;;;;5093535;28;20040;-76
2021/01/11 11:22:35;;;;;;;36.25;23.55;;;154.20;1945.60;;;;;;5091615;28;20028;-75
2021/01/11 11:25:06;;;;;;;33.10;21.20;;;154.40;1920.00;;;;;;5092002;28;20036;-74
2021/01/11 11:27:35;;;;;;;33.75;22.73;;;154.30;1920.00;;;;;;5091707;28;20020;-74
2021/01/11 11:30:01;;;;;;;25.98;17.65;;;154.20;1945.60;;;;;;5091222;28;20028;-73
2021/01/11 11:32:29;;;;;;;29.27;20.60;;;154.10;1920.00;;;;;;5090337;28;20512;-73
2021/01/11 11:34:55;;;;;;;24.42;16.80;;;154.00;1945.60;;;;;;5091525;28;20028;-73
2021/01/11 11:37:20;;;;;;;25.90;17.45;;;154.00;1945.60;;;;;;5091029;28;20506;-74
2021/01/11 11:39:47;;;;;;;41.10;26.30;;;153.90;1945.60;;;;;;5090654;28;20024;-74
2021/01/11 11:42:12;;;;;;;43.42;27.05;;;153.80;1945.60;;;;;;5072954;28;20070;-74
2021/01/11 11:44:38;;;;;;;43.78;27.55;;;153.90;1945.60;;;;;;5072720;28;20016;-75
2021/01/11 11:47:04;;;;;;;39.10;24.77;;;154.10;1945.60;;;;;;5072521;28;20031;-76
2021/01/11 11:49:29;;;;;;;34.42;22.33;;;154.10;1945.60;;;;;;5090529;28;20028;-74
2021/01/11 11:51:55;;;;;;;30.95;20.75;;;154.20;1945.60;;;;;;5095164;28;20016;-78
2021/01/11 11:54:20;;;;;;;28.42;17.90;;;154.20;1945.60;;;;;;5076659;28;20065;-78
2021/01/11 11:56:47;;;;;;;52.85;29.55;;;154.20;1920.00;;;;;;5094207;28;20028;-77
2021/01/11 11:59:13;;;;;;;46.80;27.80;;;153.90;1945.60;;;;;;5094724;28;20480;-76
2021/01/11 12:01:39;;;;;;;41.28;27.10;;;153.60;1971.20;;;;;;5094370;28;20099;-78
2021/01/11 12:04:05;;;;;;;29.85;19.40;;;153.60;1971.20;;;;;;5077841;28;20077;-75
2021/01/11 12:06:41;;;;;;;27.15;17.45;;;128.90;1971.20;;;;;;5077608;28;20032;-78
2021/01/11 12:09:07;;;;;;;26.83;16.77;;;128.80;1996.80;;;;;;5094516;28;20400;-76
2021/01/11 12:11:48;;;;;;;29.13;19.25;;;128.70;2022.40;;;;;;5096038;28;20388;-76
2021/01/11 12:14:14;;;;;;;33.33;21.85;;;128.50;2022.40;;;;;;5095444;28;20023;-78